Terminal Aerodrome Forecast
Issued by NWS

Home | Current Version | Previous Version | Text Only | Print | Product List | Glossary On
Versions: 1 2 3 4 5 6 7 8 9 10 11 12 13 14 15 16 17 18 19 20 21 22 23 24 25
000
FTUS41 KOKX 050830 AAA
TAFTEB
TAF AMD
KTEB 050830Z 0509/0606 05005KT P6SM FEW020 FEW070
     FM052000 14007KT P6SM SKC
     FM060000 13004KT P6SM SKC
     FM060200 VRB03KT P6SM SKC=

USA.gov is the U.S. government's official web portal to all federal, state and local government web resources and services.